Terminal Aerodrome Forecast
Issued by NWS Cleveland, OH

Home | Current Version | Previous Version | Text Only | Print | Product List | Glossary Off
Versions: 1 2 3 4 5 6 7 8 9 10 11 12 13 14

253
FTUS41 KCLE 160238 AAA
TAFCAK
TAF AMD
KCAK 160238Z 1603/1624 30013G22KT P6SM SCT017 BKN030
      TEMPO 1603/1606 SCT030 BKN050
     FM160600 32009KT P6SM SCT017 BKN030
     FM160900 32008KT P6SM SCT017 BKN035
     FM161700 32010KT P6SM FEW022 SCT045
      TEMPO 1617/1621 BKN045
     FM162300 32005KT P6SM FEW045 FEW250=

USA.gov is the U.S. government's official web portal to all federal, state and local government web resources and services.